Time;durP1;ratioP1;P1;durP2;ratioP2;P2;SDS_P1;SDS_P2;PMS_P1;PMS_P2;Temp;Humidity;BMP_temperature;BMP_pressure;BME280_temperature;BME280_humidity;BME280_pressure;Samples;Min_cycle;Max_cycle;Signal;HPM_P1;HPM_P2
2021/01/24 00:02:15;;;;;;;20.55;14.38;;;3.60;99.90;;;;;;5086555;28;20551;-74
2021/01/24 00:04:41;;;;;;;20.52;14.18;;;3.60;99.90;;;;;;5087908;28;20044;-74
2021/01/24 00:07:11;;;;;;;22.35;15.55;;;3.70;99.90;;;;;;5075916;28;20663;-74
2021/01/24 00:09:37;;;;;;;24.48;16.38;;;3.70;99.90;;;;;;5083222;28;20036;-74
2021/01/24 00:12:05;;;;;;;21.73;15.02;;;3.70;99.90;;;;;;5087140;28;20990;-74
2021/01/24 00:14:35;;;;;;;21.08;15.05;;;3.60;99.90;;;;;;5077191;28;20032;-74
2021/01/24 00:17:03;;;;;;;23.17;15.68;;;3.60;99.90;;;;;;5074634;28;20026;-74
2021/01/24 00:19:29;;;;;;;25.85;17.13;;;3.60;99.90;;;;;;5075237;28;20509;-74
2021/01/24 00:21:54;;;;;;;23.23;15.85;;;3.60;99.90;;;;;;5082110;28;20111;-74
2021/01/24 00:24:22;;;;;;;20.45;14.02;;;3.50;99.90;;;;;;5088776;28;20078;-74
2021/01/24 00:26:51;;;;;;;21.35;15.00;;;3.60;99.90;;;;;;5073893;28;20151;-74
2021/01/24 00:29:19;;;;;;;23.63;15.98;;;3.50;99.90;;;;;;5085960;28;20082;-74
2021/01/24 00:31:44;;;;;;;22.60;15.90;;;3.50;99.90;;;;;;5085254;28;20044;-74
2021/01/24 00:34:12;;;;;;;21.67;15.30;;;3.50;99.90;;;;;;5087329;28;20032;-74
2021/01/24 00:36:38;;;;;;;21.10;14.98;;;3.50;99.90;;;;;;5086938;28;20449;-74
2021/01/24 00:39:04;;;;;;;20.25;13.07;;;3.50;99.90;;;;;;5078338;28;20028;-74
2021/01/24 00:41:30;;;;;;;21.23;14.65;;;3.50;99.90;;;;;;5044142;28;20023;-74
2021/01/24 00:43:56;;;;;;;21.30;14.02;;;3.50;99.90;;;;;;5077674;28;20114;-74
2021/01/24 00:46:21;;;;;;;20.88;15.10;;;3.50;99.90;;;;;;5076857;28;20067;-74
2021/01/24 00:48:52;;;;;;;20.70;14.65;;;3.50;99.90;;;;;;5053529;28;20103;-74
2021/01/24 00:51:20;;;;;;;19.45;14.25;;;3.50;99.90;;;;;;5083375;28;20035;-74
2021/01/24 00:53:46;;;;;;;21.85;14.82;;;3.50;99.90;;;;;;5093465;28;20031;-74
2021/01/24 00:56:11;;;;;;;21.40;14.85;;;3.50;99.90;;;;;;5089015;28;20028;-74
2021/01/24 00:58:39;;;;;;;21.17;14.50;;;3.50;99.90;;;;;;5089374;28;20021;-74
2021/01/24 01:01:05;;;;;;;19.45;13.82;;;3.50;99.90;;;;;;5090031;28;20036;-74
2021/01/24 01:03:31;;;;;;;20.58;13.98;;;3.50;99.90;;;;;;5087910;28;20032;-74
2021/01/24 01:05:56;;;;;;;17.90;12.65;;;3.50;99.90;;;;;;5089577;28;20078;-73
2021/01/24 01:08:22;;;;;;;18.05;12.65;;;3.50;99.90;;;;;;5077412;28;20028;-74
2021/01/24 01:10:50;;;;;;;20.83;14.88;;;3.50;99.90;;;;;;5055125;28;20445;-74
2021/01/24 01:13:16;;;;;;;18.95;13.18;;;3.40;99.90;;;;;;5090278;28;20028;-74
2021/01/24 01:15:41;;;;;;;18.80;13.13;;;3.40;99.90;;;;;;5075168;28;20506;-74
2021/01/24 01:18:07;;;;;;;19.40;13.65;;;3.50;99.90;;;;;;5074386;28;20460;-74
2021/01/24 01:20:35;;;;;;;17.77;12.55;;;3.40;99.90;;;;;;5086913;28;20109;-73
2021/01/24 01:23:01;;;;;;;17.38;12.05;;;3.40;99.90;;;;;;5088088;28;20395;-73
2021/01/24 01:25:26;;;;;;;15.48;10.75;;;3.40;99.90;;;;;;5091942;28;20034;-73
2021/01/24 01:27:57;;;;;;;14.60;10.50;;;3.40;99.90;;;;;;5092855;28;20032;-74
2021/01/24 01:30:23;;;;;;;13.27;9.50;;;3.40;99.90;;;;;;5089707;28;20110;-74
2021/01/24 01:32:53;;;;;;;15.00;10.20;;;3.40;99.90;;;;;;5082705;28;20036;-73
2021/01/24 01:35:23;;;;;;;14.45;9.40;;;3.40;99.90;;;;;;5075246;28;20499;-73
2021/01/24 01:37:51;;;;;;;10.98;8.00;;;3.40;99.90;;;;;;5075464;28;20103;-73
2021/01/24 01:40:19;;;;;;;13.00;9.50;;;3.40;99.90;;;;;;5069391;28;20035;-73
2021/01/24 01:42:47;;;;;;;11.25;7.88;;;3.40;99.90;;;;;;5074312;28;20090;-73
2021/01/24 01:45:13;;;;;;;12.40;8.85;;;3.40;99.90;;;;;;5075141;28;20036;-73
2021/01/24 01:47:40;;;;;;;12.55;8.63;;;3.40;99.90;;;;;;5076161;28;20645;-73
2021/01/24 01:50:10;;;;;;;12.55;8.93;;;3.40;99.90;;;;;;5073805;28;20039;-73
2021/01/24 01:52:36;;;;;;;12.88;8.88;;;3.40;99.90;;;;;;5086687;28;20508;-73
2021/01/24 01:55:02;;;;;;;13.40;9.70;;;3.40;99.90;;;;;;5089837;28;20028;-73
2021/01/24 01:57:32;;;;;;;13.88;9.13;;;3.40;99.90;;;;;;5091118;28;20015;-73
2021/01/24 01:59:57;;;;;;;11.02;7.75;;;3.40;99.90;;;;;;5089760;28;20042;-73
2021/01/24 02:02:28;;;;;;;11.98;8.15;;;3.40;99.90;;;;;;5080075;28;20024;-72
2021/01/24 02:05:07;;;;;;;10.95;7.45;;;3.40;99.90;;;;;;5089535;28;20760;-73
2021/01/24 02:07:44;;;;;;;11.57;7.30;;;3.40;99.90;;;;;;5074126;28;20028;-73
2021/01/24 02:10:16;;;;;;;13.05;8.18;;;3.40;99.90;;;;;;5073586;28;20028;-73
2021/01/24 02:12:52;;;;;;;8.25;5.53;;;3.40;99.90;;;;;;5078989;28;20032;-73
2021/01/24 02:15:19;;;;;;;8.25;5.63;;;3.30;99.90;;;;;;5074277;28;20118;-73
2021/01/24 02:17:55;;;;;;;10.68;7.40;;;3.30;99.90;;;;;;5057500;28;20020;-73
2021/01/24 02:20:29;;;;;;;18.75;7.25;;;3.30;99.90;;;;;;5056082;28;21011;-72
2021/01/24 02:22:57;;;;;;;8.60;5.70;;;3.20;99.90;;;;;;5056733;28;20035;-72
2021/01/24 02:25:44;;;;;;;8.80;5.93;;;3.20;99.90;;;;;;5082075;28;20574;-73
2021/01/24 02:28:27;;;;;;;9.35;6.35;;;3.20;99.90;;;;;;5077459;28;20039;-72
2021/01/24 02:30:53;;;;;;;8.40;5.80;;;3.20;99.90;;;;;;5065093;28;20028;-72
2021/01/24 02:33:21;;;;;;;8.02;5.78;;;3.10;99.90;;;;;;5047808;28;20024;-72
2021/01/24 02:36:01;;;;;;;7.95;5.68;;;3.10;99.90;;;;;;5081203;28;20058;-72
2021/01/24 02:38:26;;;;;;;6.00;3.65;;;3.10;99.90;;;;;;5089835;28;20062;-72
2021/01/24 02:40:52;;;;;;;6.35;4.60;;;3.10;99.90;;;;;;5055294;28;20056;-72
2021/01/24 02:43:20;;;;;;;6.70;4.25;;;3.00;99.90;;;;;;5086915;28;20059;-71
2021/01/24 02:45:48;;;;;;;6.25;3.90;;;3.00;99.90;;;;;;5089434;28;20063;-72
2021/01/24 02:48:14;;;;;;;6.60;4.57;;;3.10;99.90;;;;;;5086809;28;20024;-71
2021/01/24 02:50:42;;;;;;;5.03;3.30;;;3.00;99.90;;;;;;5063213;28;20038;-71
2021/01/24 02:53:08;;;;;;;4.18;2.38;;;3.00;99.90;;;;;;5082741;28;20417;-71
2021/01/24 02:55:36;;;;;;;4.13;2.35;;;3.00;99.90;;;;;;5082084;28;20051;-71
2021/01/24 02:58:05;;;;;;;4.18;2.30;;;2.90;99.90;;;;;;5082722;28;20036;-71
2021/01/24 03:00:32;;;;;;;3.97;2.20;;;2.90;99.90;;;;;;5089103;28;20032;-71
2021/01/24 03:03:00;;;;;;;3.45;1.80;;;3.00;99.90;;;;;;5073494;28;21931;-71
2021/01/24 03:05:26;;;;;;;4.15;2.25;;;2.90;99.90;;;;;;5072957;28;20418;-71
2021/01/24 03:07:54;;;;;;;2.13;1.40;;;2.90;99.90;;;;;;5074096;28;20123;-70
2021/01/24 03:10:20;;;;;;;4.35;1.20;;;2.80;99.90;;;;;;5071993;28;20040;-70
2021/01/24 03:12:54;;;;;;;2.40;0.95;;;2.80;99.90;;;;;;5055607;28;20412;-70
2021/01/24 03:15:25;;;;;;;1.58;1.13;;;2.80;99.90;;;;;;5067074;28;20234;-70
2021/01/24 03:17:51;;;;;;;1.50;0.70;;;2.80;99.90;;;;;;5072361;28;20111;-71
2021/01/24 03:20:17;;;;;;;0.82;0.63;;;2.80;99.90;;;;;;5073301;28;20036;-71
2021/01/24 03:22:48;;;;;;;1.23;0.60;;;2.80;99.90;;;;;;5074096;28;20020;-70
2021/01/24 03:25:15;;;;;;;1.73;0.63;;;2.80;99.90;;;;;;5061590;28;20069;-71
2021/01/24 03:27:45;;;;;;;2.58;0.60;;;2.80;99.90;;;;;;5059479;28;20116;-71
2021/01/24 03:30:14;;;;;;;2.72;0.80;;;2.70;99.90;;;;;;5053601;28;20143;-71
2021/01/24 03:32:42;;;;;;;1.30;0.60;;;2.60;99.90;;;;;;5073837;28;20090;-72
2021/01/24 03:35:08;;;;;;;7.15;0.77;;;2.60;99.90;;;;;;5072438;28;20048;-72
2021/01/24 03:37:36;;;;;;;0.70;0.40;;;2.60;99.90;;;;;;5075293;28;20025;-72
2021/01/24 03:40:01;;;;;;;0.98;0.60;;;2.60;99.90;;;;;;5073390;28;20035;-73
2021/01/24 03:42:28;;;;;;;0.40;0.40;;;2.50;99.90;;;;;;5072865;28;20028;-74
2021/01/24 03:44:59;;;;;;;1.27;0.60;;;2.40;99.90;;;;;;5058786;28;20044;-72
2021/01/24 03:47:25;;;;;;;0.63;0.60;;;2.40;99.90;;;;;;5070990;28;20047;-72
2021/01/24 03:49:50;;;;;;;0.50;0.50;;;2.40;99.90;;;;;;5073665;28;20036;-72
2021/01/24 03:52:16;;;;;;;0.60;0.50;;;2.20;99.90;;;;;;5079046;28;20024;-72
2021/01/24 03:54:44;;;;;;;0.50;0.50;;;2.20;99.90;;;;;;5087302;28;20032;-73
2021/01/24 03:57:10;;;;;;;2.75;0.55;;;2.10;99.90;;;;;;5088659;28;20028;-73
2021/01/24 03:59:37;;;;;;;0.70;0.63;;;2.00;99.90;;;;;;5089664;28;20028;-74
2021/01/24 04:02:05;;;;;;;1.98;0.88;;;1.90;99.90;;;;;;5084166;28;20032;-73
2021/01/24 04:04:31;;;;;;;0.63;0.63;;;1.90;99.90;;;;;;5073572;28;20039;-74
2021/01/24 04:06:56;;;;;;;0.70;0.70;;;1.90;99.90;;;;;;5075296;28;20028;-73
2021/01/24 04:09:22;;;;;;;0.93;0.75;;;1.80;99.90;;;;;;5073935;28;20071;-73
2021/01/24 04:11:50;;;;;;;0.70;0.70;;;1.80;99.90;;;;;;5079284;28;20028;-74
2021/01/24 04:14:21;;;;;;;2.28;0.70;;;1.80;99.90;;;;;;5085112;28;20038;-74
2021/01/24 04:16:48;;;;;;;1.27;0.70;;;1.80;99.90;;;;;;5077047;28;20024;-73
2021/01/24 04:19:14;;;;;;;1.05;0.63;;;1.80;99.90;;;;;;5076715;28;20473;-73
2021/01/24 04:21:40;;;;;;;0.65;0.65;;;1.80;99.90;;;;;;5059794;28;20119;-74
2021/01/24 04:24:06;;;;;;;1.27;0.80;;;1.80;99.90;;;;;;5077303;28;20032;-75
2021/01/24 04:26:32;;;;;;;0.70;0.68;;;1.80;99.90;;;;;;5082185;28;20108;-73
2021/01/24 04:29:00;;;;;;;0.82;0.60;;;1.80;99.90;;;;;;5092346;28;20107;-73
2021/01/24 04:31:28;;;;;;;0.60;0.60;;;1.90;99.90;;;;;;5080821;28;20040;-73
2021/01/24 04:33:56;;;;;;;0.50;0.50;;;1.80;99.90;;;;;;5071663;28;20552;-74
2021/01/24 04:36:22;;;;;;;2.42;0.93;;;1.80;99.90;;;;;;5084076;28;20068;-73
2021/01/24 04:38:50;;;;;;;0.85;0.70;;;1.80;99.90;;;;;;5075625;28;20174;-74
2021/01/24 04:41:18;;;;;;;0.60;0.60;;;1.70;99.90;;;;;;5080468;28;20059;-73
2021/01/24 04:43:48;;;;;;;0.70;0.70;;;1.70;99.90;;;;;;5076155;28;20457;-73
2021/01/24 04:46:19;;;;;;;0.60;0.60;;;1.70;99.90;;;;;;5089087;28;20599;-73
2021/01/24 04:48:47;;;;;;;0.50;0.50;;;1.80;99.90;;;;;;5065149;28;20043;-73
2021/01/24 04:51:13;;;;;;;1.15;0.70;;;1.80;99.90;;;;;;5077147;28;20111;-73
2021/01/24 04:53:39;;;;;;;0.80;0.80;;;1.80;99.90;;;;;;5074647;28;20028;-72
2021/01/24 04:56:05;;;;;;;0.70;0.70;;;1.80;99.90;;;;;;5088480;28;20020;-73
2021/01/24 04:58:31;;;;;;;1.38;0.70;;;1.90;99.90;;;;;;5075218;28;20505;-73
2021/01/24 05:00:57;;;;;;;1.02;0.85;;;1.80;99.90;;;;;;5075651;28;20032;-72
2021/01/24 05:03:27;;;;;;;1.20;0.90;;;1.90;99.90;;;;;;5075262;28;20103;-72
2021/01/24 05:05:53;;;;;;;0.60;0.60;;;1.90;99.90;;;;;;5076973;28;20060;-72
2021/01/24 05:08:22;;;;;;;0.60;0.60;;;1.90;99.90;;;;;;5076393;28;20123;-72
2021/01/24 05:10:54;;;;;;;0.75;0.75;;;1.90;99.90;;;;;;5083612;28;20032;-72
2021/01/24 05:13:26;;;;;;;0.90;0.83;;;1.90;99.90;;;;;;5075235;28;20052;-72
2021/01/24 05:15:54;;;;;;;;;;;1.90;99.90;;;;;;5067290;28;20118;-72
2021/01/24 05:18:21;;;;;;;0.90;0.80;;;1.90;99.90;;;;;;5082788;28;19912;-72
2021/01/24 05:20:46;;;;;;;0.70;0.70;;;1.90;99.90;;;;;;5075575;28;20028;-72
2021/01/24 05:23:12;;;;;;;0.80;0.80;;;1.90;99.90;;;;;;5075935;28;20495;-72
2021/01/24 05:25:37;;;;;;;0.75;0.75;;;2.00;99.90;;;;;;5070208;28;20033;-73
2021/01/24 05:28:23;;;;;;;1.05;0.93;;;1.90;99.90;;;;;;5060017;28;20034;-72
2021/01/24 05:30:53;;;;;;;1.27;0.70;;;2.00;99.90;;;;;;5076743;28;20032;-71
2021/01/24 05:33:23;;;;;;;1.80;0.95;;;2.00;99.90;;;;;;5074769;28;20039;-71
2021/01/24 05:35:50;;;;;;;1.13;0.98;;;2.10;99.90;;;;;;5075598;28;20097;-71
2021/01/24 05:38:27;;;;;;;1.20;0.80;;;2.10;99.90;;;;;;5066425;28;20045;-71
2021/01/24 05:40:56;;;;;;;1.95;1.10;;;2.10;99.90;;;;;;5074860;28;20032;-72
2021/01/24 05:43:26;;;;;;;1.20;1.02;;;2.10;99.90;;;;;;5059199;28;20362;-71
2021/01/24 05:45:52;;;;;;;1.35;1.10;;;2.10;99.90;;;;;;5074479;28;20065;-71
2021/01/24 05:48:23;;;;;;;2.30;1.30;;;2.20;99.90;;;;;;5073339;28;20059;-71
2021/01/24 05:50:51;;;;;;;2.22;1.10;;;2.20;99.90;;;;;;5085356;28;20019;-72
2021/01/24 05:53:17;;;;;;;2.85;1.40;;;2.10;99.90;;;;;;5090670;28;20130;-71
2021/01/24 05:55:43;;;;;;;1.65;1.13;;;2.10;99.90;;;;;;5072702;28;20111;-71
2021/01/24 05:58:22;;;;;;;2.03;1.40;;;2.00;99.90;;;;;;5073999;28;20020;-71
2021/01/24 06:00:54;;;;;;;2.03;1.30;;;2.10;99.90;;;;;;5088605;28;20028;-72
2021/01/24 06:03:22;;;;;;;2.05;1.30;;;2.00;99.90;;;;;;5076292;28;20023;-72
2021/01/24 06:05:48;;;;;;;2.67;1.40;;;2.00;99.90;;;;;;5082054;28;20522;-72
2021/01/24 06:08:15;;;;;;;2.45;1.30;;;2.00;99.90;;;;;;5087421;28;20028;-72
2021/01/24 06:10:42;;;;;;;2.17;1.30;;;2.00;99.90;;;;;;5088218;28;20031;-72
2021/01/24 06:13:15;;;;;;;3.17;1.50;;;2.00;99.90;;;;;;5075396;28;20051;-72
2021/01/24 06:15:46;;;;;;;3.25;1.70;;;2.00;99.90;;;;;;5072932;28;20034;-72
2021/01/24 06:18:15;;;;;;;2.85;1.60;;;2.00;99.90;;;;;;5061129;28;20036;-71
2021/01/24 06:20:49;;;;;;;3.00;1.50;;;2.00;99.90;;;;;;5074827;28;20021;-71
2021/01/24 06:23:22;;;;;;;2.22;1.38;;;2.00;99.90;;;;;;5083215;28;20042;-71
2021/01/24 06:25:53;;;;;;;3.05;1.67;;;2.00;99.90;;;;;;5075643;28;20028;-71
2021/01/24 06:28:23;;;;;;;2.20;1.30;;;2.00;99.90;;;;;;5061674;28;20059;-71
2021/01/24 06:30:48;;;;;;;2.33;1.30;;;2.00;99.90;;;;;;5073765;28;20085;-70
2021/01/24 06:33:19;;;;;;;2.92;1.50;;;2.00;99.90;;;;;;5075583;28;20073;-70
2021/01/24 06:35:48;;;;;;;2.40;1.50;;;2.00;99.90;;;;;;5064802;28;20062;-71
2021/01/24 06:38:27;;;;;;;2.75;1.50;;;2.00;99.90;;;;;;5084010;28;20024;-71
2021/01/24 06:40:53;;;;;;;2.83;1.40;;;2.00;99.90;;;;;;5087674;28;20035;-71
2021/01/24 06:43:40;;;;;;;2.58;1.50;;;2.00;99.90;;;;;;5065585;28;20027;-71
2021/01/24 06:46:28;;;;;;;3.63;1.30;;;2.00;99.90;;;;;;5062848;28;20036;-72
2021/01/24 06:48:54;;;;;;;1.98;1.40;;;1.90;99.90;;;;;;5087806;28;20047;-71
2021/01/24 06:51:36;;;;;;;2.40;1.40;;;2.00;99.90;;;;;;5074389;28;20021;-72
2021/01/24 06:54:06;;;;;;;3.17;1.30;;;1.90;99.90;;;;;;5073875;28;20020;-72
2021/01/24 06:56:41;;;;;;;2.35;1.40;;;1.90;99.90;;;;;;5075517;28;20035;-71
2021/01/24 06:59:07;;;;;;;2.08;1.35;;;1.90;99.90;;;;;;5073467;28;20029;-71
2021/01/24 07:01:37;;;;;;;2.42;1.58;;;1.90;99.90;;;;;;5074954;28;20733;-71
2021/01/24 07:04:20;;;;;;;7.40;1.40;;;1.90;99.90;;;;;;5080727;28;20032;-72
2021/01/24 07:06:49;;;;;;;1.63;1.30;;;1.90;99.90;;;;;;5083951;28;20036;-72
2021/01/24 07:09:24;;;;;;;2.35;1.30;;;1.90;99.90;;;;;;5086985;28;20031;-72
2021/01/24 07:12:01;;;;;;;2.72;1.30;;;1.90;99.90;;;;;;5074452;28;20032;-71
2021/01/24 07:14:36;;;;;;;2.58;1.40;;;2.00;99.90;;;;;;5076105;28;20028;-72
2021/01/24 07:17:09;;;;;;;2.50;1.40;;;1.90;99.90;;;;;;5073550;28;20035;-71
2021/01/24 07:19:51;;;;;;;2.17;1.30;;;1.90;99.90;;;;;;5075169;28;20099;-71
2021/01/24 07:22:23;;;;;;;2.38;1.33;;;2.00;99.90;;;;;;5050368;28;20093;-71
2021/01/24 07:24:50;;;;;;;1.85;1.10;;;1.90;99.90;;;;;;5073229;28;20032;-71
2021/01/24 07:27:20;;;;;;;2.83;1.30;;;1.90;99.90;;;;;;5072946;28;20390;-72
2021/01/24 07:29:46;;;;;;;3.28;1.40;;;1.90;99.90;;;;;;5071877;28;20028;-71
2021/01/24 07:32:18;;;;;;;2.20;1.40;;;1.90;99.90;;;;;;5079327;28;20484;-71
2021/01/24 07:34:47;;;;;;;2.30;1.35;;;2.00;99.90;;;;;;5072678;28;20123;-70
2021/01/24 07:37:18;;;;;;;3.05;1.35;;;2.00;99.90;;;;;;5073545;28;20488;-70
2021/01/24 07:39:47;;;;;;;2.72;1.42;;;2.00;99.90;;;;;;5075254;28;20566;-70
2021/01/24 07:42:16;;;;;;;2.22;1.30;;;2.00;99.90;;;;;;5063942;28;20028;-70
2021/01/24 07:44:42;;;;;;;1.77;1.17;;;2.00;99.90;;;;;;5073970;28;20082;-70
2021/01/24 07:47:15;;;;;;;5.80;3.05;;;1.90;99.90;;;;;;5049829;28;20020;-71
2021/01/24 07:49:40;;;;;;;2.92;1.65;;;1.90;99.90;;;;;;5087327;28;20101;-71
2021/01/24 07:52:09;;;;;;;2.05;1.20;;;1.90;99.90;;;;;;5070469;28;20095;-70
2021/01/24 07:54:40;;;;;;;2.03;1.20;;;2.00;99.90;;;;;;5085660;28;20043;-71
2021/01/24 07:57:09;;;;;;;1.75;1.17;;;1.90;99.90;;;;;;5085271;28;20103;-70
2021/01/24 07:59:35;;;;;;;1.63;1.10;;;1.90;99.90;;;;;;5072813;28;20031;-71
2021/01/24 08:02:02;;;;;;;3.42;1.30;;;2.00;99.90;;;;;;5089140;28;20024;-71
2021/01/24 08:04:28;;;;;;;2.50;1.20;;;1.90;99.90;;;;;;5104280;28;20024;-71
2021/01/24 08:06:54;;;;;;;1.52;1.10;;;2.00;99.90;;;;;;5073731;28;20028;-70
2021/01/24 08:09:22;;;;;;;1.80;1.13;;;1.90;99.90;;;;;;5087766;28;20027;-70
2021/01/24 08:11:50;;;;;;;1.33;0.93;;;2.00;99.90;;;;;;5089844;28;20578;-70
2021/01/24 08:14:20;;;;;;;1.23;0.85;;;2.00;99.90;;;;;;5086821;28;20033;-70
2021/01/24 08:16:51;;;;;;;1.67;0.90;;;2.00;99.90;;;;;;5085894;28;20039;-70
2021/01/24 08:19:18;;;;;;;2.05;1.20;;;2.00;99.90;;;;;;5080959;28;20035;-70
2021/01/24 08:21:47;;;;;;;1.45;1.00;;;2.00;99.90;;;;;;5048208;28;20042;-70
2021/01/24 08:24:15;;;;;;;1.02;0.82;;;2.00;99.90;;;;;;5076720;28;20161;-70
2021/01/24 08:26:41;;;;;;;1.48;1.00;;;2.00;99.90;;;;;;5068210;28;20055;-71
2021/01/24 08:29:08;;;;;;;1.92;0.90;;;2.00;99.90;;;;;;5086291;28;20058;-70
2021/01/24 08:31:34;;;;;;;0.93;0.80;;;1.90;99.90;;;;;;5072992;28;20024;-71
2021/01/24 08:34:03;;;;;;;1.63;0.90;;;2.00;99.90;;;;;;5084799;28;20020;-70
2021/01/24 08:36:33;;;;;;;1.98;0.90;;;1.90;99.90;;;;;;5075400;28;20036;-70
2021/01/24 08:39:03;;;;;;;3.70;1.17;;;1.90;99.90;;;;;;5083836;28;20029;-70
2021/01/24 08:41:35;;;;;;;2.53;0.90;;;2.00;99.90;;;;;;5090187;28;20088;-70
2021/01/24 08:44:15;;;;;;;1.10;0.85;;;2.00;99.90;;;;;;5089536;28;20032;-70
2021/01/24 08:46:51;;;;;;;4.30;2.08;;;2.00;99.90;;;;;;5085242;28;20033;-70
2021/01/24 08:49:26;;;;;;;1.27;0.93;;;2.00;99.90;;;;;;5089298;28;20024;-71
2021/01/24 08:52:00;;;;;;;0.95;0.80;;;2.00;99.90;;;;;;5086547;28;20024;-71
2021/01/24 08:54:30;;;;;;;2.03;0.90;;;2.00;99.90;;;;;;5073994;28;20047;-71
2021/01/24 08:57:16;;;;;;;1.67;1.00;;;1.90;99.90;;;;;;5084751;28;20028;-70
2021/01/24 09:00:02;;;;;;;0.70;0.70;;;1.90;99.90;;;;;;5090476;28;20054;-71
2021/01/24 09:02:34;;;;;;;0.98;0.80;;;1.90;99.90;;;;;;5092305;28;20024;-70
2021/01/24 09:05:00;;;;;;;0.85;0.73;;;1.90;99.90;;;;;;5075867;28;20119;-71
2021/01/24 09:07:54;;;;;;;0.63;0.63;;;1.90;99.90;;;;;;5093407;28;20029;-70
2021/01/24 09:10:21;;;;;;;0.85;0.85;;;1.90;99.90;;;;;;5089924;28;20120;-70
2021/01/24 09:12:52;;;;;;;0.95;0.70;;;1.90;99.90;;;;;;5089705;28;20016;-70
2021/01/24 09:15:21;;;;;;;1.15;0.77;;;1.90;99.90;;;;;;5093890;28;20020;-71
2021/01/24 09:17:52;;;;;;;1.90;1.00;;;1.80;99.90;;;;;;5089305;28;20353;-71
2021/01/24 09:20:20;;;;;;;1.23;0.93;;;1.80;99.90;;;;;;5070573;28;20465;-71
2021/01/24 09:22:46;;;;;;;1.23;0.88;;;1.70;99.90;;;;;;5090632;28;20057;-71
2021/01/24 09:25:15;;;;;;;1.02;0.90;;;1.80;99.90;;;;;;5082451;28;20142;-70
2021/01/24 09:27:42;;;;;;;0.93;0.90;;;1.70;99.90;;;;;;5071193;28;20469;-71
2021/01/24 09:30:13;;;;;;;1.35;1.20;;;1.70;99.90;;;;;;5086641;28;20050;-70
2021/01/24 09:32:44;;;;;;;1.42;1.10;;;1.70;99.90;;;;;;5085617;28;20018;-70
2021/01/24 09:35:10;;;;;;;2.83;1.33;;;1.80;99.90;;;;;;5066481;28;20059;-71
2021/01/24 09:37:36;;;;;;;1.52;1.15;;;1.80;99.90;;;;;;5085361;28;20020;-70
2021/01/24 09:40:03;;;;;;;2.20;1.30;;;1.70;99.90;;;;;;5087758;28;20157;-71
2021/01/24 09:42:34;;;;;;;1.95;1.30;;;1.70;99.90;;;;;;5074234;28;20032;-71
2021/01/24 09:44:59;;;;;;;2.40;1.38;;;1.70;99.90;;;;;;5087126;28;20059;-70
2021/01/24 09:47:25;;;;;;;2.20;1.40;;;1.70;99.90;;;;;;5086308;28;20055;-70
2021/01/24 09:49:53;;;;;;;2.30;1.50;;;1.70;99.90;;;;;;5072867;28;20058;-70
2021/01/24 09:52:19;;;;;;;2.53;1.50;;;1.70;99.90;;;;;;5092059;28;20111;-70
2021/01/24 09:54:47;;;;;;;2.20;1.50;;;1.70;99.90;;;;;;5075407;28;20103;-70
2021/01/24 09:57:12;;;;;;;3.03;1.83;;;1.60;99.90;;;;;;5085351;28;20050;-71
2021/01/24 09:59:40;;;;;;;2.90;1.60;;;1.60;99.90;;;;;;5074544;28;20016;-70
2021/01/24 10:02:06;;;;;;;3.63;1.80;;;1.60;99.90;;;;;;5088712;28;20037;-72
2021/01/24 10:04:31;;;;;;;3.65;2.10;;;1.60;99.90;;;;;;5087590;28;20035;-69
2021/01/24 10:06:57;;;;;;;3.30;1.95;;;1.50;99.90;;;;;;5089571;28;20034;-70
2021/01/24 10:09:23;;;;;;;2.80;1.80;;;1.50;99.90;;;;;;5085265;28;20031;-70
2021/01/24 10:11:51;;;;;;;3.17;1.85;;;1.60;99.90;;;;;;5086017;28;20111;-70
2021/01/24 10:14:16;;;;;;;3.22;1.80;;;1.50;99.90;;;;;;5090146;28;20059;-70
2021/01/24 10:16:47;;;;;;;3.40;1.90;;;1.60;99.90;;;;;;5089083;28;20056;-70
2021/01/24 10:19:15;;;;;;;3.95;1.90;;;1.60;99.90;;;;;;5087355;28;20342;-70
2021/01/24 10:21:41;;;;;;;3.35;1.90;;;1.60;99.90;;;;;;5085922;28;20095;-71
2021/01/24 10:24:07;;;;;;;3.60;2.00;;;1.60;99.90;;;;;;5083832;28;20123;-71
2021/01/24 10:26:33;;;;;;;3.80;2.08;;;1.60;99.90;;;;;;5088533;28;20027;-71
2021/01/24 10:28:58;;;;;;;3.85;2.10;;;1.60;99.90;;;;;;4371815;28;10000761;-70
2021/01/24 10:31:24;;;;;;;4.40;2.38;;;1.60;99.90;;;;;;5088195;28;20051;-70
2021/01/24 10:33:50;;;;;;;4.88;2.20;;;1.50;99.90;;;;;;5088373;28;20485;-70
2021/01/24 10:36:18;;;;;;;4.13;2.17;;;1.50;99.90;;;;;;5085401;28;20043;-70
2021/01/24 10:38:48;;;;;;;3.72;2.22;;;1.60;99.90;;;;;;5082496;28;20107;-70
2021/01/24 10:41:17;;;;;;;4.10;2.33;;;1.60;99.90;;;;;;5085555;28;20035;-70
2021/01/24 10:43:43;;;;;;;4.30;2.42;;;1.60;99.90;;;;;;5084407;28;20043;-71
2021/01/24 10:46:08;;;;;;;4.50;2.40;;;1.60;99.90;;;;;;5085591;28;20119;-71
2021/01/24 10:48:34;;;;;;;4.03;2.40;;;1.60;99.90;;;;;;5081486;28;20066;-71
2021/01/24 10:51:00;;;;;;;4.32;2.20;;;1.60;99.90;;;;;;5082651;28;20023;-71
2021/01/24 10:53:25;;;;;;;3.65;2.10;;;1.60;99.90;;;;;;5065687;28;20081;-71
2021/01/24 10:55:53;;;;;;;4.38;2.38;;;1.60;99.90;;;;;;5080259;28;20034;-70
2021/01/24 10:58:21;;;;;;;4.03;2.30;;;1.60;99.90;;;;;;5083808;28;20119;-72
2021/01/24 11:00:49;;;;;;;4.40;2.50;;;1.60;99.90;;;;;;5084488;28;20162;-70
2021/01/24 11:03:15;;;;;;;5.45;2.50;;;1.60;99.90;;;;;;5086121;28;20028;-71
2021/01/24 11:05:40;;;;;;;4.00;2.38;;;1.70;99.90;;;;;;5086471;28;20092;-71
2021/01/24 11:08:08;;;;;;;4.18;2.47;;;1.70;99.90;;;;;;5083944;28;20046;-71
2021/01/24 11:10:39;;;;;;;4.80;2.60;;;1.70;99.90;;;;;;5086779;28;20035;-71
2021/01/24 11:13:07;;;;;;;5.35;2.85;;;1.80;99.90;;;;;;4730839;28;10001150;-70
2021/01/24 11:15:32;;;;;;;4.53;2.58;;;1.80;99.90;;;;;;5081715;28;20059;-70
2021/01/24 11:18:01;;;;;;;3.95;2.20;;;1.80;99.90;;;;;;5073666;28;20240;-71
2021/01/24 11:20:28;;;;;;;4.68;2.17;;;1.80;99.90;;;;;;5083010;28;20029;-71
2021/01/24 11:22:57;;;;;;;4.30;2.33;;;1.80;99.90;;;;;;5083445;28;20076;-71
2021/01/24 11:25:22;;;;;;;4.88;2.50;;;1.90;99.90;;;;;;5080008;28;20037;-71
2021/01/24 11:27:50;;;;;;;5.30;2.42;;;1.90;99.90;;;;;;5083478;28;20077;-71
2021/01/24 11:30:16;;;;;;;5.40;2.80;;;2.00;99.90;;;;;;5072511;28;20055;-71
2021/01/24 11:32:47;;;;;;;4.63;2.63;;;2.00;99.90;;;;;;5085382;28;20453;-71
2021/01/24 11:35:15;;;;;;;4.63;2.70;;;1.90;99.90;;;;;;5088227;28;20063;-71
2021/01/24 11:37:43;;;;;;;7.40;3.65;;;2.00;99.90;;;;;;5067359;28;20021;-71
2021/01/24 11:40:12;;;;;;;4.60;2.45;;;2.00;99.90;;;;;;5082352;28;20028;-71
2021/01/24 11:42:40;;;;;;;4.70;2.55;;;2.00;99.90;;;;;;5071023;28;20039;-71
2021/01/24 11:45:08;;;;;;;6.25;3.03;;;2.00;99.90;;;;;;5088772;28;20024;-71
2021/01/24 11:47:37;;;;;;;6.43;3.80;;;2.00;99.90;;;;;;5084303;28;20038;-71
2021/01/24 11:50:04;;;;;;;6.28;3.30;;;2.10;99.90;;;;;;5074510;28;20059;-71
2021/01/24 11:52:30;;;;;;;5.93;3.17;;;2.10;99.90;;;;;;5089323;28;20362;-71
2021/01/24 11:54:55;;;;;;;5.47;3.25;;;2.10;99.90;;;;;;5088808;28;20029;-72
2021/01/24 11:57:21;;;;;;;6.20;3.65;;;2.10;99.90;;;;;;5090533;28;20031;-72
2021/01/24 11:59:47;;;;;;;6.93;4.05;;;2.10;99.90;;;;;;5086586;28;20017;-72
2021/01/24 12:02:12;;;;;;;7.55;4.15;;;2.10;99.90;;;;;;5090089;28;20043;-72
2021/01/24 12:04:38;;;;;;;7.57;4.20;;;2.00;99.90;;;;;;5089177;28;20950;-71
2021/01/24 12:07:04;;;;;;;6.15;3.95;;;2.00;99.90;;;;;;5086364;28;20108;-73
2021/01/24 12:09:37;;;;;;;7.22;4.32;;;2.00;99.90;;;;;;5087245;28;20076;-71
2021/01/24 12:12:03;;;;;;;6.95;4.35;;;2.00;99.90;;;;;;5088416;28;20088;-71
2021/01/24 12:14:29;;;;;;;6.10;4.07;;;2.10;99.90;;;;;;5088928;28;20039;-72
2021/01/24 12:16:59;;;;;;;8.40;4.88;;;2.00;99.90;;;;;;5086366;28;20024;-72
2021/01/24 12:19:25;;;;;;;7.53;4.80;;;2.00;99.90;;;;;;5085490;28;20020;-72
2021/01/24 12:21:52;;;;;;;7.15;4.60;;;2.00;99.90;;;;;;5090729;28;20027;-71
2021/01/24 12:24:20;;;;;;;7.18;4.43;;;2.00;99.90;;;;;;5083926;28;20024;-71
2021/01/24 12:26:48;;;;;;;7.10;4.32;;;2.00;99.90;;;;;;5092035;28;20028;-71
2021/01/24 12:29:16;;;;;;;6.60;4.25;;;2.00;99.90;;;;;;5090184;28;20418;-70
2021/01/24 12:31:44;;;;;;;6.97;4.03;;;2.10;99.90;;;;;;5092358;28;20025;-71
2021/01/24 12:34:11;;;;;;;5.85;3.60;;;2.10;99.90;;;;;;5091969;28;20061;-71
2021/01/24 12:36:38;;;;;;;5.70;3.63;;;2.10;99.90;;;;;;5090964;28;20124;-71
2021/01/24 12:39:05;;;;;;;7.50;3.83;;;2.10;99.90;;;;;;5088117;28;20025;-71
2021/01/24 12:41:32;;;;;;;6.45;3.60;;;2.10;99.90;;;;;;5092030;28;20052;-71
2021/01/24 12:44:03;;;;;;;6.20;3.92;;;2.10;99.90;;;;;;5092239;28;20047;-71
2021/01/24 12:46:31;;;;;;;5.78;3.35;;;2.10;99.90;;;;;;5095922;28;20035;-71
2021/01/24 12:48:57;;;;;;;6.00;3.88;;;2.10;99.90;;;;;;5091020;28;20097;-71
2021/01/24 12:51:25;;;;;;;5.80;3.85;;;2.20;99.90;;;;;;5091525;28;20039;-71
2021/01/24 12:53:54;;;;;;;6.93;4.10;;;2.30;99.90;;;;;;5095243;28;20047;-72
2021/01/24 12:56:21;;;;;;;6.88;4.40;;;2.20;99.90;;;;;;5080336;28;20115;-71
2021/01/24 12:58:49;;;;;;;7.82;4.35;;;2.30;99.90;;;;;;5093636;28;20541;-71
2021/01/24 13:01:20;;;;;;;6.15;4.32;;;2.30;99.90;;;;;;5090631;28;20408;-70
2021/01/24 13:03:48;;;;;;;8.07;4.97;;;2.40;99.90;;;;;;5089722;28;20035;-71